Campiña-Non è richiesta alcuna attenzione speciale.   -   Non ci sono nessun avvisi

Nearby METAR Reports

 

LEZL - Sevilla, Spain
Distance from station: ENE 8km
Dati ricevuti: 29/05/2020 18:00
Sereno
Sereno
 Vento da NO
Vento: NO 7 km/h
Temperatura: 33°C
P.to Rugiada: 10°C
Umidità: 24%
Barometro: 1010 hPa
Summary: Sereno
Visibility: greater than 10 km
2020/05/29 16:00 LEZL 291600Z AUTO 32004KT 250V020 CAVOK 33/10 Q1010
LEMO - Morón, Spain
Distance from station: SE 43km
Dati ricevuti: 29/05/2020 18:00
Sereno
Sereno
 Vento da N
Vento: N 2 km/h
Temperatura: 34°C
P.to Rugiada: 7°C
Umidità: 19%
Barometro: 1010 hPa
Summary: Sereno
Visibility: greater than 10 km
2020/05/29 16:00 LEMO 291600Z 01001KT CAVOK 34/07 Q1010 NOSIG
LEJR - Jeréz, Spain
Distance from station: S 71km
Dati ricevuti: 29/05/2020 18:30
Sereno
Sereno
 Vento da O
Vento: O 15 km/h
Temperatura: 31°C
P.to Rugiada: 14°C
Umidità: 35%
Barometro: 1011 hPa
Summary: Sereno
Visibility: greater than 10 km
2020/05/29 16:30 LEJR 291630Z 27008KT 230V320 CAVOK 31/14 Q1011
 
LERT - Rota, Spain
Distance from station: SSO 89km
Dati ricevuti: 29/05/2020 18:00
Sereno
Sereno
 Vento da O
Vento: O 19 km/h
Temperatura: 25°C
P.to Rugiada: 18°C
Umidità: 65%
Barometro: 1012 hPa
Summary: Sereno
Visibility: greater than 10 km
2020/05/29 16:00 LERT 291600Z 27010KT 230V300 CAVOK 25/18 Q1012 NOSIG
LEMG - Málaga, Spain
Distance from station: ESE 157km
Dati ricevuti: 29/05/2020 18:00
Sereno
Sereno
 Vento da SE
Vento: SE 15 km/h
Temperatura: 26°C
P.to Rugiada: 12°C
Umidità: 42%
Barometro: 1013 hPa
Summary: Sereno
Visibility: greater than 10 km
2020/05/29 16:00 LEMG 291600Z 14008KT 110V190 CAVOK 26/12 Q1013 NOSIG
LEBA - Córdoba, Spain
Distance from station: ENE 115km
Dati ricevuti: 29/05/2020 18:00
Sereno
Sereno
 Vento da ENE
Vento: ENE 6 km/h
Temperatura: 34°C
P.to Rugiada: 10°C
Umidità: 23%
Barometro: 1010 hPa
Summary: Sereno
Visibility: greater than 10 km
2020/05/29 16:00 LEBA 291600Z AUTO 07003KT 010V140 CAVOK 34/10 Q1010
 
LEGR - Granada, Spain
Distance from station: E 198km
Dati ricevuti: 29/05/2020 18:00
Sereno
Sereno
 Vento da varies
Vento: varies 2 km/h
Temperatura: 33°C
P.to Rugiada: 6°C
Umidità: 18%
Barometro: 1012 hPa
Summary: Sereno
Visibility: greater than 10 km
2020/05/29 16:00 LEGR 291600Z AUTO VRB01KT CAVOK 33/06 Q1012
LEAM - Almería, Spain
Distance from station: E 326km
Dati ricevuti: 29/05/2020 18:00
Sereno
Sereno
 Vento da E
Vento: E 31 km/h
Temperatura: 29°C
P.to Rugiada: 6°C
Umidità: 23%
Barometro: 1012 hPa
Summary: Sereno
Visibility: greater than 10 km
2020/05/29 16:00 LEAM 291600Z AUTO 08017KT 040V120 CAVOK 29/06 Q1012
LEMD - Madrid/Barajas, Spain
Distance from station: NNE 402km
Dati ricevuti: 29/05/2020 18:00
Few Clouds
Few Clouds
 Vento da ESE
Vento: ESE 7 km/h
Temperatura: 31°C
P.to Rugiada: 7°C
Umidità: 22%
Barometro: 1014 hPa
Clouds: Few Clouds
Visibility: 10 km
Cloud details: Few Clouds 914 m
2020/05/29 16:00 LEMD 291600Z 11004KT 9999 FEW030 31/07 Q1014 NOSIG
 
LEVD - Valladolid, Spain
Distance from station: N 492km
Dati ricevuti: 29/05/2020 18:00
Sereno
Sereno
 Vento da NNE
Vento: NNE 9 km/h
Temperatura: 28°C
P.to Rugiada: 8°C
Umidità: 28%
Barometro: 1015 hPa
Summary: Sereno
Visibility: greater than 10 km
2020/05/29 16:00 LEVD 291600Z AUTO 02005KT 350V060 CAVOK 28/08 Q1015
LEBL - Barcelona, Spain
Distance from station: NE 816km
Dati ricevuti: 29/05/2020 18:16
Nearby thunderstorm, Few clouds
Nearby thunderstorm, Few clouds
 Vento da S
Vento: S 15 km/h
Temperatura: 23°C
P.to Rugiada: 17°C
Umidità: 69%
Barometro: 1015 hPa
Summary: Nearby Thunderstorm
Clouds: Few Clouds
Visibility: 10 km
Cloud details: Few Clouds 1524 m
2020/05/29 16:16 LEBL 291616Z 19008KT 160V220 9999 VCTS FEW050CB 23/17 Q1015 TEMPO SHRA
LEVC - Valencia, Spain
Distance from station: ENE 535km
Dati ricevuti: 29/05/2020 18:00
Few Clouds
Few Clouds
 Vento da SE
Vento: SE 22 km/h
Temperatura: 27°C
P.to Rugiada: 12°C
Umidità: 39%
Barometro: 1014 hPa
Clouds: Few Clouds
Visibility: 10 km
Cloud details: Few Clouds 1372 m
2020/05/29 16:00 LEVC 291600Z 13012KT 100V160 9999 FEW045 27/12 Q1014 NOSIG